createdAt,value
2022-09-28T00:01:16.774Z,97.80
2022-09-28T00:03:45.502Z,97.60
2022-09-28T00:06:15.999Z,97.90
2022-09-28T00:08:44.697Z,98.00
2022-09-28T00:11:15.332Z,98.00
2022-09-28T00:13:46.067Z,98.10
2022-09-28T00:16:16.797Z,98.10
2022-09-28T00:18:45.961Z,98.30
2022-09-28T00:21:16.194Z,98.20
2022-09-28T00:23:59.186Z,98.10
2022-09-28T00:26:29.678Z,98.30
2022-09-28T00:28:59.694Z,98.10
2022-09-28T00:31:33.399Z,98.00
2022-09-28T00:34:05.341Z,98.20
2022-09-28T00:36:34.065Z,98.40
2022-09-28T00:39:06.744Z,98.80
2022-09-28T00:41:36.639Z,99.10
2022-09-28T00:44:39.712Z,99.30
2022-09-28T00:47:16.362Z,99.40
2022-09-28T00:49:48.362Z,99.60
2022-09-28T00:52:20.900Z,99.70
2022-09-28T00:54:50.769Z,99.60
2022-09-28T00:57:22.803Z,99.70
2022-09-28T00:59:52.346Z,99.70
2022-09-28T01:02:21.352Z,99.70
2022-09-28T01:04:50.587Z,99.70
2022-09-28T01:07:19.309Z,99.70
2022-09-28T01:09:49.183Z,99.70
2022-09-28T01:12:17.787Z,99.80
2022-09-28T01:14:48.925Z,99.70
2022-09-28T01:17:19.114Z,99.80
2022-09-28T01:20:22.971Z,99.80
2022-09-28T01:23:21.156Z,99.90
2022-09-28T01:25:55.387Z,99.90
2022-09-28T01:28:29.087Z,99.90
2022-09-28T01:31:07.542Z,99.90
2022-09-28T01:33:40.403Z,99.90
2022-09-28T01:36:13.443Z,99.90
2022-09-28T01:38:47.502Z,99.90
2022-09-28T01:41:17.814Z,99.90
2022-09-28T01:43:54.576Z,99.90
2022-09-28T01:46:26.257Z,99.90
2022-09-28T01:48:58.144Z,99.90
2022-09-28T01:51:35.475Z,99.90
2022-09-28T01:54:11.424Z,99.90
2022-09-28T01:56:46.767Z,99.90
2022-09-28T01:59:20.450Z,99.90
2022-09-28T02:01:52.827Z,99.90
2022-09-28T02:04:25.452Z,99.90
2022-09-28T02:06:57.633Z,99.90
2022-09-28T02:09:33.897Z,99.90
2022-09-28T02:12:07.236Z,99.90
2022-09-28T02:14:38.810Z,99.90
2022-09-28T02:17:07.429Z,99.90
2022-09-28T02:19:36.548Z,99.90
2022-09-28T02:22:14.501Z,99.90
2022-09-28T02:24:52.613Z,99.90
2022-09-28T02:27:37.095Z,99.90
2022-09-28T02:30:08.330Z,99.90
2022-09-28T02:32:40.246Z,99.90
2022-09-28T02:35:10.223Z,99.90
2022-09-28T02:37:38.303Z,99.90
2022-09-28T02:40:13.912Z,99.90
2022-09-28T02:42:53.015Z,99.90
2022-09-28T02:45:37.364Z,99.90
2022-09-28T02:48:24.071Z,99.90
2022-09-28T02:51:13.731Z,99.90
2022-09-28T02:53:54.390Z,99.90
2022-09-28T02:56:33.874Z,99.90
2022-09-28T02:59:11.133Z,99.90
2022-09-28T03:01:50.415Z,99.90
2022-09-28T03:04:31.228Z,99.90
2022-09-28T03:07:06.950Z,99.90
2022-09-28T03:09:41.086Z,99.90
2022-09-28T03:12:12.164Z,99.90
2022-09-28T03:14:41.325Z,99.90
2022-09-28T03:17:10.692Z,99.90
2022-09-28T03:19:39.196Z,99.90
2022-09-28T03:22:08.076Z,99.90
2022-09-28T03:24:36.336Z,99.90
2022-09-28T03:27:04.694Z,99.90
2022-09-28T03:29:34.422Z,99.90
2022-09-28T03:32:06.017Z,99.90
2022-09-28T03:34:35.579Z,99.90
2022-09-28T03:37:03.613Z,99.90
2022-09-28T03:39:32.069Z,99.90
2022-09-28T03:42:01.676Z,99.90
2022-09-28T03:44:32.157Z,99.90
2022-09-28T03:47:00.233Z,99.90
2022-09-28T03:49:28.263Z,99.90
2022-09-28T03:51:57.837Z,99.90
2022-09-28T03:54:26.049Z,99.90
2022-09-28T03:56:54.081Z,99.90
2022-09-28T03:59:22.178Z,99.90
2022-09-28T04:01:50.696Z,99.90
2022-09-28T04:04:19.451Z,99.90
2022-09-28T04:06:47.364Z,99.90
2022-09-28T04:09:17.366Z,99.90
2022-09-28T04:12:02.779Z,99.90
2022-09-28T04:14:31.778Z,99.90
2022-09-28T04:16:59.746Z,99.90
2022-09-28T04:19:29.405Z,99.90
2022-09-28T04:22:11.787Z,99.90
2022-09-28T04:24:43.411Z,99.90
2022-09-28T04:27:28.767Z,99.90
2022-09-28T04:29:56.779Z,99.90
2022-09-28T04:32:24.748Z,99.90
2022-09-28T04:34:52.867Z,99.90
2022-09-28T04:37:20.896Z,99.90
2022-09-28T04:39:50.239Z,99.90
2022-09-28T04:42:20.419Z,99.90
2022-09-28T04:44:50.490Z,99.90
2022-09-28T04:47:18.450Z,99.90
2022-09-28T04:50:07.138Z,99.90
2022-09-28T04:52:37.612Z,99.90
2022-09-28T04:55:08.586Z,99.90
2022-09-28T04:57:37.150Z,99.90
2022-09-28T05:00:06.203Z,99.90
2022-09-28T05:02:37.047Z,99.90
2022-09-28T05:05:23.647Z,99.90
2022-09-28T05:08:10.762Z,99.90
2022-09-28T05:10:41.355Z,99.90
2022-09-28T05:13:09.776Z,99.90
2022-09-28T05:15:38.319Z,99.90
2022-09-28T05:18:07.445Z,99.90
2022-09-28T05:20:46.634Z,99.90
2022-09-28T05:23:15.567Z,99.90
2022-09-28T05:25:46.362Z,99.90
2022-09-28T05:28:25.032Z,99.90
2022-09-28T05:31:11.643Z,99.90
2022-09-28T05:33:59.431Z,99.90
2022-09-28T05:36:27.926Z,99.90
2022-09-28T05:38:55.898Z,99.90
2022-09-28T05:41:25.497Z,99.90
2022-09-28T05:43:54.936Z,99.90
2022-09-28T05:46:23.809Z,99.90
2022-09-28T05:48:54.176Z,99.90
2022-09-28T05:51:24.582Z,99.90
2022-09-28T05:53:55.775Z,99.90
2022-09-28T05:56:27.343Z,99.90
2022-09-28T05:58:56.071Z,99.90
2022-09-28T06:01:25.737Z,99.90
2022-09-28T06:03:55.073Z,99.90
2022-09-28T06:06:23.068Z,99.90
2022-09-28T06:08:51.219Z,99.90
2022-09-28T06:11:40.789Z,99.90
2022-09-28T06:14:33.087Z,99.90
2022-09-28T06:17:01.143Z,99.90
2022-09-28T06:19:29.783Z,99.90
2022-09-28T06:21:59.359Z,99.90
2022-09-28T06:24:27.841Z,99.90
2022-09-28T06:26:57.246Z,99.90
2022-09-28T06:29:25.202Z,99.90
2022-09-28T06:31:54.749Z,99.90
2022-09-28T06:34:24.662Z,99.90
2022-09-28T06:36:52.896Z,99.90
2022-09-28T06:39:21.110Z,99.90
2022-09-28T06:41:49.020Z,99.90
2022-09-28T06:44:20.495Z,99.90
2022-09-28T06:47:17.641Z,99.90
2022-09-28T06:50:06.211Z,99.90
2022-09-28T06:52:54.241Z,99.90
2022-09-28T06:55:43.965Z,99.90
2022-09-28T06:58:14.044Z,99.90
2022-09-28T07:00:44.069Z,99.90
2022-09-28T07:03:15.468Z,99.90
2022-09-28T07:06:16.254Z,99.90
2022-09-28T07:09:30.773Z,99.90
2022-09-28T07:12:16.426Z,99.90
2022-09-28T07:14:57.259Z,99.90
2022-09-28T07:17:29.077Z,99.90
2022-09-28T07:20:08.418Z,99.90
2022-09-28T07:22:43.829Z,99.90
2022-09-28T07:25:18.293Z,99.90
2022-09-28T07:28:06.182Z,99.90
2022-09-28T07:30:57.440Z,99.90
2022-09-28T07:34:02.465Z,99.90
2022-09-28T07:36:36.283Z,99.90
2022-09-28T07:39:11.018Z,99.90
2022-09-28T07:41:39.657Z,99.90
2022-09-28T07:44:08.636Z,99.90
2022-09-28T07:46:38.455Z,99.90
2022-09-28T07:49:15.499Z,99.90
2022-09-28T07:52:03.296Z,99.90
2022-09-28T07:54:52.159Z,99.90
2022-09-28T07:57:36.139Z,99.90
2022-09-28T08:00:19.286Z,99.90
2022-09-28T08:02:49.015Z,99.90
2022-09-28T08:05:26.034Z,99.90
2022-09-28T08:07:57.700Z,99.90
2022-09-28T08:10:28.001Z,99.90
2022-09-28T08:13:07.477Z,99.90
2022-09-28T08:15:56.058Z,99.90
2022-09-28T08:18:33.051Z,99.80
2022-09-28T08:21:20.981Z,99.10
2022-09-28T08:23:49.091Z,99.60
2022-09-28T08:26:17.551Z,99.90
2022-09-28T08:28:47.710Z,99.90
2022-09-28T08:31:33.959Z,99.90
2022-09-28T08:34:28.102Z,99.90
2022-09-28T08:37:12.602Z,99.90
2022-09-28T08:39:43.534Z,99.90
2022-09-28T08:42:32.742Z,99.90
2022-09-28T08:45:26.872Z,99.90
2022-09-28T08:48:35.107Z,99.90
2022-09-28T08:51:27.501Z,99.90
2022-09-28T08:54:11.921Z,99.90
2022-09-28T08:56:53.949Z,99.90
2022-09-28T08:59:26.188Z,99.90
2022-09-28T09:02:05.284Z,99.90
2022-09-28T09:04:35.434Z,99.90
2022-09-28T09:07:50.972Z,99.90
2022-09-28T09:10:42.631Z,99.90
2022-09-28T09:13:44.152Z,99.90
2022-09-28T09:16:22.488Z,99.90
2022-09-28T09:19:18.386Z,99.90
2022-09-28T09:22:17.917Z,99.90
2022-09-28T09:24:51.646Z,99.90
2022-09-28T09:27:43.874Z,99.90
2022-09-28T09:30:17.603Z,99.90
2022-09-28T09:33:07.611Z,99.90
2022-09-28T09:36:04.522Z,99.40
2022-09-28T09:39:04.619Z,98.00
2022-09-28T09:42:03.657Z,98.00
2022-09-28T09:45:25.981Z,98.30
2022-09-28T09:48:20.098Z,98.30
2022-09-28T09:50:52.544Z,98.40
2022-09-28T09:53:28.764Z,97.70
2022-09-28T09:56:03.594Z,98.40
2022-09-28T09:58:39.785Z,98.80
2022-09-28T10:01:35.140Z,98.40
2022-09-28T10:04:24.293Z,98.00
2022-09-28T10:06:58.796Z,98.30
2022-09-28T10:09:31.712Z,98.50
2022-09-28T10:12:20.173Z,98.30
2022-09-28T10:14:48.429Z,98.00
2022-09-28T10:17:20.565Z,98.10
2022-09-28T10:20:12.770Z,98.20
2022-09-28T10:22:58.925Z,98.00
2022-09-28T10:25:28.048Z,97.20
2022-09-28T10:27:58.730Z,96.90
2022-09-28T10:30:28.396Z,96.60
2022-09-28T10:33:02.868Z,97.30
2022-09-28T10:35:43.450Z,96.90
2022-09-28T10:38:18.469Z,96.30
2022-09-28T10:40:56.277Z,96.50
2022-09-28T10:43:34.569Z,95.90
2022-09-28T10:46:09.758Z,95.50
2022-09-28T10:48:50.819Z,95.70
2022-09-28T10:51:21.079Z,94.60
2022-09-28T10:54:02.667Z,94.80
2022-09-28T10:56:46.066Z,93.40
2022-09-28T10:59:38.046Z,93.20
2022-09-28T11:02:27.965Z,93.70
2022-09-28T11:05:06.228Z,94.30
2022-09-28T11:07:47.000Z,92.90
2022-09-28T11:10:23.177Z,92.70
2022-09-28T11:12:53.875Z,92.50
2022-09-28T11:15:28.066Z,93.30
2022-09-28T11:17:56.209Z,92.40
2022-09-28T11:20:36.028Z,92.40
2022-09-28T11:23:31.696Z,93.10
2022-09-28T11:26:17.640Z,92.90
2022-09-28T11:28:52.552Z,93.20
2022-09-28T11:31:30.416Z,92.80
2022-09-28T11:34:07.516Z,92.60
2022-09-28T11:37:03.255Z,92.80
2022-09-28T11:39:42.210Z,92.40
2022-09-28T11:42:20.901Z,92.00
2022-09-28T11:44:50.454Z,91.20
2022-09-28T11:47:41.104Z,91.40
2022-09-28T11:50:23.862Z,90.50
2022-09-28T11:53:00.872Z,90.80
2022-09-28T11:55:35.986Z,91.10
2022-09-28T11:58:11.795Z,91.50
2022-09-28T12:00:44.168Z,91.20
2022-09-28T12:03:17.410Z,90.60
2022-09-28T12:05:50.349Z,90.10
2022-09-28T12:08:25.471Z,91.10
2022-09-28T12:11:11.460Z,91.20
2022-09-28T12:14:03.886Z,91.70
2022-09-28T12:19:32.299Z,92.10
2022-09-28T12:22:05.203Z,92.10
2022-09-28T12:24:40.050Z,92.00
2022-09-28T12:27:15.391Z,91.60
2022-09-28T12:29:47.798Z,91.20
2022-09-28T12:32:25.467Z,91.00
2022-09-28T12:34:53.564Z,90.40
2022-09-28T12:37:54.527Z,90.30
2022-09-28T12:40:38.932Z,90.20
2022-09-28T12:44:00.817Z,91.30
2022-09-28T12:46:45.915Z,89.90
2022-09-28T12:50:27.127Z,89.30
2022-09-28T12:52:37.259Z,86.20
2022-09-28T12:55:25.129Z,88.90
2022-09-28T12:58:04.085Z,90.10
2022-09-28T13:00:39.975Z,86.80
2022-09-28T13:03:48.706Z,86.50
2022-09-28T13:06:37.779Z,84.70
2022-09-28T13:09:24.622Z,86.20
2022-09-28T13:12:14.729Z,88.80
2022-09-28T13:15:15.430Z,88.20
2022-09-28T13:17:56.378Z,87.30
2022-09-28T13:20:36.018Z,85.80
2022-09-28T13:23:20.330Z,85.70
2022-09-28T13:25:55.733Z,85.40
2022-09-28T13:28:27.373Z,85.60
2022-09-28T13:33:36.836Z,85.90
2022-09-28T13:36:05.763Z,85.70
2022-09-28T13:38:55.260Z,85.80
2022-09-28T13:41:29.036Z,85.40
2022-09-28T13:44:23.801Z,84.70
2022-09-28T13:47:03.317Z,84.80
2022-09-28T13:49:45.469Z,84.10
2022-09-28T13:52:26.737Z,84.20
2022-09-28T13:55:10.502Z,84.30
2022-09-28T13:57:46.277Z,84.60
2022-09-28T14:00:27.450Z,84.20
2022-09-28T14:06:08.049Z,85.50
2022-09-28T14:08:39.726Z,85.90
2022-09-28T14:11:40.658Z,85.70
2022-09-28T14:14:42.113Z,85.10
2022-09-28T14:17:50.409Z,85.80
2022-09-28T14:20:22.229Z,86.90
2022-09-28T14:23:38.325Z,86.60
2022-09-28T14:26:44.955Z,86.40
2022-09-28T14:29:28.745Z,86.10
2022-09-28T14:31:58.665Z,86.80
2022-09-28T14:34:36.171Z,87.70
2022-09-28T14:37:36.594Z,87.70
2022-09-28T14:40:35.170Z,88.10
2022-09-28T14:43:37.932Z,87.70
2022-09-28T14:46:28.634Z,89.00
2022-09-28T14:48:58.392Z,88.60
2022-09-28T14:51:58.028Z,85.80
2022-09-28T14:54:28.649Z,85.40
2022-09-28T14:57:08.125Z,84.70
2022-09-28T14:59:43.447Z,85.80
2022-09-28T15:02:19.217Z,86.60
2022-09-28T15:04:50.191Z,85.40
2022-09-28T15:07:21.421Z,84.70
2022-09-28T15:09:52.872Z,84.70
2022-09-28T15:12:25.094Z,85.70
2022-09-28T15:14:56.382Z,86.80
2022-09-28T15:17:27.009Z,84.40
2022-09-28T15:20:21.899Z,85.80
2022-09-28T15:22:51.489Z,84.20
2022-09-28T15:25:24.960Z,84.10
2022-09-28T15:27:55.491Z,84.40
2022-09-28T15:30:27.359Z,85.60
2022-09-28T15:33:17.491Z,85.30
2022-09-28T15:35:47.928Z,86.10
2022-09-28T15:38:18.254Z,86.00
2022-09-28T15:40:48.432Z,86.80
2022-09-28T15:43:27.026Z,87.20
2022-09-28T15:46:05.289Z,87.80
2022-09-28T15:48:42.039Z,88.40
2022-09-28T15:51:11.729Z,88.50
2022-09-28T15:53:47.648Z,89.00
2022-09-28T15:56:17.165Z,88.70
2022-09-28T15:59:05.473Z,89.30
2022-09-28T16:01:39.840Z,89.70
2022-09-28T16:04:37.482Z,90.30
2022-09-28T16:07:28.107Z,90.60
2022-09-28T16:10:06.298Z,91.00
2022-09-28T16:12:46.539Z,90.90
2022-09-28T16:15:20.653Z,91.10
2022-09-28T16:17:56.819Z,91.10
2022-09-28T16:20:29.123Z,91.30
2022-09-28T16:22:59.501Z,91.70
2022-09-28T16:25:28.291Z,91.50
2022-09-28T16:27:56.773Z,91.80
2022-09-28T16:30:27.222Z,91.90
2022-09-28T16:32:59.052Z,92.00
2022-09-28T16:35:32.635Z,92.20
2022-09-28T16:38:13.705Z,92.50
2022-09-28T16:40:43.196Z,92.50
2022-09-28T16:43:20.219Z,92.30
2022-09-28T16:45:48.241Z,92.30
2022-09-28T16:48:21.797Z,92.30
2022-09-28T16:50:50.093Z,92.60
2022-09-28T16:53:36.026Z,92.70
2022-09-28T16:56:07.389Z,92.70
2022-09-28T16:58:38.951Z,92.70
2022-09-28T17:01:08.700Z,92.80
2022-09-28T17:03:38.247Z,92.80
2022-09-28T17:06:07.389Z,92.60
2022-09-28T17:08:35.639Z,92.90
2022-09-28T17:11:24.057Z,92.80
2022-09-28T17:13:56.741Z,92.30
2022-09-28T17:16:57.270Z,92.80
2022-09-28T17:19:20.878Z,93.30
2022-09-28T17:21:49.531Z,93.40
2022-09-28T17:24:17.579Z,93.90
2022-09-28T17:26:47.304Z,94.30
2022-09-28T17:29:16.387Z,94.00
2022-09-28T17:31:45.310Z,94.10
2022-09-28T17:34:15.133Z,94.10
2022-09-28T17:36:45.257Z,94.20
2022-09-28T17:39:15.027Z,94.40
2022-09-28T17:41:43.012Z,94.60
2022-09-28T17:44:11.103Z,94.80
2022-09-28T17:46:41.039Z,95.00
2022-09-28T17:49:12.452Z,94.90
2022-09-28T17:51:40.597Z,95.00
2022-09-28T17:54:09.958Z,95.10
2022-09-28T17:56:38.405Z,95.50
2022-09-28T17:59:08.685Z,95.30
2022-09-28T18:01:39.941Z,95.40
2022-09-28T18:04:13.208Z,95.40
2022-09-28T18:06:47.337Z,95.50
2022-09-28T18:09:25.569Z,95.50
2022-09-28T18:12:00.791Z,95.60
2022-09-28T18:14:30.106Z,95.60
2022-09-28T18:16:58.193Z,95.90
2022-09-28T18:19:31.791Z,95.90
2022-09-28T18:22:02.080Z,95.90
2022-09-28T18:24:32.486Z,95.70
2022-09-28T18:27:00.843Z,95.90
2022-09-28T18:29:33.280Z,96.00
2022-09-28T18:32:02.318Z,96.00
2022-09-28T18:34:30.290Z,95.90
2022-09-28T18:36:58.279Z,95.90
2022-09-28T18:39:26.525Z,96.10
2022-09-28T18:41:55.920Z,95.80
2022-09-28T18:44:25.370Z,95.90
2022-09-28T18:46:53.572Z,96.00
2022-09-28T18:49:21.930Z,96.00
2022-09-28T18:51:50.012Z,96.20
2022-09-28T18:54:18.218Z,96.50
2022-09-28T18:56:46.292Z,96.30
2022-09-28T18:59:15.866Z,96.30
2022-09-28T19:01:44.065Z,96.40
2022-09-28T19:04:13.456Z,96.40
2022-09-28T19:06:44.317Z,96.50
2022-09-28T19:09:13.108Z,96.50
2022-09-28T19:11:41.127Z,96.40
2022-09-28T19:14:11.161Z,96.40
2022-09-28T19:16:40.569Z,96.40
2022-09-28T19:19:08.867Z,96.10
2022-09-28T19:21:36.894Z,96.20
2022-09-28T19:24:05.665Z,96.30
2022-09-28T19:26:34.059Z,96.40
2022-09-28T19:29:03.039Z,96.30
2022-09-28T19:31:31.900Z,96.10
2022-09-28T19:34:04.300Z,96.00
2022-09-28T19:36:32.281Z,96.30
2022-09-28T19:39:02.593Z,96.20
2022-09-28T19:41:44.354Z,96.10
2022-09-28T19:44:21.051Z,96.20
2022-09-28T19:46:49.012Z,96.20
2022-09-28T19:49:20.539Z,96.20
2022-09-28T19:54:38.080Z,95.90
2022-09-28T19:57:07.685Z,95.90
2022-09-28T19:59:36.504Z,96.20
2022-09-28T20:02:05.198Z,96.10
2022-09-28T20:04:34.606Z,96.20
2022-09-28T20:07:02.693Z,96.30
2022-09-28T20:09:30.718Z,96.30
2022-09-28T20:11:58.749Z,96.40
2022-09-28T20:14:32.839Z,96.50
2022-09-28T20:17:04.741Z,96.60
2022-09-28T20:19:34.876Z,96.40
2022-09-28T20:22:03.479Z,96.30
2022-09-28T20:24:32.053Z,96.50
2022-09-28T20:27:01.370Z,96.50
2022-09-28T20:29:31.603Z,96.60
2022-09-28T20:32:00.361Z,96.90
2022-09-28T20:34:29.098Z,96.70
2022-09-28T20:36:58.418Z,96.80
2022-09-28T20:39:26.610Z,96.70
2022-09-28T20:41:54.978Z,96.80
2022-09-28T20:44:23.043Z,96.90
2022-09-28T20:46:52.062Z,96.90
2022-09-28T20:49:20.115Z,97.00
2022-09-28T20:51:48.176Z,97.00
2022-09-28T20:54:17.719Z,97.00
2022-09-28T20:56:48.027Z,97.10
2022-09-28T20:59:16.130Z,96.90
2022-09-28T21:01:44.302Z,97.10
2022-09-28T21:04:12.961Z,97.10
2022-09-28T21:06:42.721Z,97.00
2022-09-28T21:09:12.185Z,97.10
2022-09-28T21:11:41.602Z,97.10
2022-09-28T21:14:10.676Z,97.00
2022-09-28T21:16:39.207Z,96.80
2022-09-28T21:19:07.332Z,97.00
2022-09-28T21:21:35.345Z,96.70
2022-09-28T21:24:03.495Z,97.00
2022-09-28T21:26:32.775Z,96.90
2022-09-28T21:29:03.673Z,96.90
2022-09-28T21:31:33.787Z,96.80
2022-09-28T21:34:01.828Z,96.90
2022-09-28T21:36:29.872Z,97.00
2022-09-28T21:38:58.049Z,96.90
2022-09-28T21:41:26.717Z,97.00
2022-09-28T21:43:54.732Z,97.00
2022-09-28T21:46:24.700Z,97.10
2022-09-28T21:48:53.861Z,97.30
2022-09-28T21:51:22.099Z,97.50
2022-09-28T21:53:51.757Z,97.60
2022-09-28T21:56:19.713Z,97.60
2022-09-28T21:58:48.118Z,97.70
2022-09-28T22:01:19.353Z,97.70
2022-09-28T22:03:51.568Z,97.70
2022-09-28T22:06:21.190Z,97.40
2022-09-28T22:08:50.226Z,97.50
2022-09-28T22:11:20.388Z,97.70
2022-09-28T22:13:50.252Z,97.60
2022-09-28T22:16:19.780Z,97.40
2022-09-28T22:18:49.636Z,97.50
2022-09-28T22:21:19.693Z,97.60
2022-09-28T22:23:48.122Z,97.60
2022-09-28T22:26:19.014Z,97.60
2022-09-28T22:28:48.325Z,97.40
2022-09-28T22:31:17.602Z,97.70
2022-09-28T22:33:45.881Z,97.50
2022-09-28T22:36:16.923Z,97.70
2022-09-28T22:38:45.663Z,97.60
2022-09-28T22:41:15.900Z,97.50
2022-09-28T22:43:44.643Z,97.60
2022-09-28T22:46:15.126Z,97.60
2022-09-28T22:48:46.868Z,97.80
2022-09-28T22:51:16.611Z,97.60
2022-09-28T22:53:45.276Z,97.50
2022-09-28T22:56:18.446Z,97.60
2022-09-28T22:58:47.391Z,97.90
2022-09-28T23:01:17.822Z,97.80
2022-09-28T23:03:46.579Z,97.90
2022-09-28T23:06:17.642Z,98.00
2022-09-28T23:08:47.248Z,98.20
2022-09-28T23:11:16.036Z,98.20
2022-09-28T23:13:44.152Z,98.20
2022-09-28T23:16:14.795Z,98.00
2022-09-28T23:18:43.572Z,97.80
2022-09-28T23:21:15.188Z,98.00
2022-09-28T23:23:45.468Z,98.00
2022-09-28T23:26:15.920Z,98.10
2022-09-28T23:28:44.374Z,98.20
2022-09-28T23:31:15.365Z,98.30
2022-09-28T23:33:43.904Z,98.40
2022-09-28T23:36:12.458Z,98.50
2022-09-28T23:38:40.565Z,98.60
2022-09-28T23:41:10.559Z,98.40
2022-09-28T23:43:38.610Z,98.20
2022-09-28T23:46:31.635Z,98.20
2022-09-28T23:48:59.641Z,98.20
2022-09-28T23:51:27.601Z,97.90
2022-09-28T23:53:55.653Z,97.80
2022-09-28T23:56:25.057Z,98.10
2022-09-28T23:58:52.990Z,98.00
